sensor_id;sensor_type;location;lat;lon;timestamp;P1;durP1;ratioP1;P2;durP2;ratioP2
8580;SDS011;4328;48.622;9.230;2023-07-09T00:01:39;4.07;;;3.00;;
8580;SDS011;4328;48.622;9.230;2023-07-09T00:04:07;3.50;;;3.20;;
8580;SDS011;4328;48.622;9.230;2023-07-09T00:06:34;3.80;;;3.00;;
8580;SDS011;4328;48.622;9.230;2023-07-09T00:09:00;3.60;;;3.30;;
8580;SDS011;4328;48.622;9.230;2023-07-09T00:11:28;3.37;;;3.07;;
8580;SDS011;4328;48.622;9.230;2023-07-09T00:13:54;3.33;;;3.03;;
8580;SDS011;4328;48.622;9.230;2023-07-09T00:16:23;4.33;;;3.23;;
8580;SDS011;4328;48.622;9.230;2023-07-09T00:18:50;3.17;;;2.97;;
8580;SDS011;4328;48.622;9.230;2023-07-09T00:21:16;3.63;;;3.03;;
8580;SDS011;4328;48.622;9.230;2023-07-09T00:23:43;4.97;;;3.40;;
8580;SDS011;4328;48.622;9.230;2023-07-09T00:26:09;3.83;;;3.33;;
8580;SDS011;4328;48.622;9.230;2023-07-09T00:28:40;3.07;;;2.80;;
8580;SDS011;4328;48.622;9.230;2023-07-09T00:31:07;3.33;;;3.00;;
8580;SDS011;4328;48.622;9.230;2023-07-09T00:33:35;4.47;;;3.43;;
8580;SDS011;4328;48.622;9.230;2023-07-09T00:36:04;3.80;;;3.10;;
8580;SDS011;4328;48.622;9.230;2023-07-09T00:38:34;3.67;;;3.33;;
8580;SDS011;4328;48.622;9.230;2023-07-09T00:41:04;3.50;;;3.20;;
8580;SDS011;4328;48.622;9.230;2023-07-09T00:43:32;3.83;;;2.80;;
8580;SDS011;4328;48.622;9.230;2023-07-09T00:48:46;3.60;;;3.10;;
8580;SDS011;4328;48.622;9.230;2023-07-09T00:51:15;4.67;;;2.90;;
8580;SDS011;4328;48.622;9.230;2023-07-09T00:53:42;4.03;;;3.43;;
8580;SDS011;4328;48.622;9.230;2023-07-09T00:56:11;3.47;;;3.10;;
8580;SDS011;4328;48.622;9.230;2023-07-09T00:58:39;3.50;;;3.20;;
8580;SDS011;4328;48.622;9.230;2023-07-09T01:01:07;3.57;;;3.30;;
8580;SDS011;4328;48.622;9.230;2023-07-09T01:03:37;3.70;;;3.40;;
8580;SDS011;4328;48.622;9.230;2023-07-09T01:06:08;4.20;;;3.30;;
8580;SDS011;4328;48.622;9.230;2023-07-09T01:08:35;3.73;;;3.43;;
8580;SDS011;4328;48.622;9.230;2023-07-09T01:11:02;3.80;;;3.50;;
8580;SDS011;4328;48.622;9.230;2023-07-09T01:13:29;4.57;;;3.33;;
8580;SDS011;4328;48.622;9.230;2023-07-09T01:15:57;3.70;;;3.40;;
8580;SDS011;4328;48.622;9.230;2023-07-09T01:18:24;3.97;;;3.67;;
8580;SDS011;4328;48.622;9.230;2023-07-09T01:20:51;3.87;;;3.27;;
8580;SDS011;4328;48.622;9.230;2023-07-09T01:23:20;3.60;;;3.30;;
8580;SDS011;4328;48.622;9.230;2023-07-09T01:25:49;3.53;;;3.23;;
8580;SDS011;4328;48.622;9.230;2023-07-09T01:28:17;3.53;;;3.23;;
8580;SDS011;4328;48.622;9.230;2023-07-09T01:30:45;4.20;;;3.50;;
8580;SDS011;4328;48.622;9.230;2023-07-09T01:33:14;4.53;;;3.40;;
8580;SDS011;4328;48.622;9.230;2023-07-09T01:35:40;3.90;;;3.57;;
8580;SDS011;4328;48.622;9.230;2023-07-09T01:38:07;4.03;;;3.73;;
8580;SDS011;4328;48.622;9.230;2023-07-09T01:40:35;4.33;;;3.77;;
8580;SDS011;4328;48.622;9.230;2023-07-09T01:43:02;4.13;;;3.47;;
8580;SDS011;4328;48.622;9.230;2023-07-09T01:45:31;4.13;;;3.77;;
8580;SDS011;4328;48.622;9.230;2023-07-09T01:47:58;4.20;;;3.80;;
8580;SDS011;4328;48.622;9.230;2023-07-09T01:50:24;3.73;;;3.43;;
8580;SDS011;4328;48.622;9.230;2023-07-09T01:52:51;4.83;;;3.57;;
8580;SDS011;4328;48.622;9.230;2023-07-09T01:55:19;4.10;;;3.80;;
8580;SDS011;4328;48.622;9.230;2023-07-09T01:57:47;3.73;;;3.43;;
8580;SDS011;4328;48.622;9.230;2023-07-09T02:00:16;3.70;;;3.40;;
8580;SDS011;4328;48.622;9.230;2023-07-09T02:02:43;4.00;;;3.23;;
8580;SDS011;4328;48.622;9.230;2023-07-09T02:05:10;3.67;;;3.37;;
8580;SDS011;4328;48.622;9.230;2023-07-09T02:07:38;3.93;;;3.63;;
8580;SDS011;4328;48.622;9.230;2023-07-09T02:10:04;3.93;;;3.53;;
8580;SDS011;4328;48.622;9.230;2023-07-09T02:12:31;3.93;;;3.63;;
8580;SDS011;4328;48.622;9.230;2023-07-09T02:14:59;3.60;;;3.40;;
8580;SDS011;4328;48.622;9.230;2023-07-09T02:17:25;3.67;;;3.20;;
8580;SDS011;4328;48.622;9.230;2023-07-09T02:19:52;4.63;;;3.80;;
8580;SDS011;4328;48.622;9.230;2023-07-09T02:22:18;5.40;;;3.80;;
8580;SDS011;4328;48.622;9.230;2023-07-09T02:24:45;4.23;;;3.73;;
8580;SDS011;4328;48.622;9.230;2023-07-09T02:27:15;3.70;;;3.40;;
8580;SDS011;4328;48.622;9.230;2023-07-09T02:29:42;4.00;;;3.70;;
8580;SDS011;4328;48.622;9.230;2023-07-09T02:32:09;4.03;;;3.63;;
8580;SDS011;4328;48.622;9.230;2023-07-09T02:34:39;4.03;;;3.73;;
8580;SDS011;4328;48.622;9.230;2023-07-09T02:37:05;3.80;;;3.33;;
8580;SDS011;4328;48.622;9.230;2023-07-09T02:39:32;4.13;;;3.47;;
8580;SDS011;4328;48.622;9.230;2023-07-09T02:41:58;4.53;;;3.90;;
8580;SDS011;4328;48.622;9.230;2023-07-09T02:44:24;3.80;;;3.47;;
8580;SDS011;4328;48.622;9.230;2023-07-09T02:46:51;3.80;;;3.40;;
8580;SDS011;4328;48.622;9.230;2023-07-09T02:49:19;4.47;;;4.07;;
8580;SDS011;4328;48.622;9.230;2023-07-09T02:51:45;3.87;;;3.47;;
8580;SDS011;4328;48.622;9.230;2023-07-09T02:54:12;3.97;;;3.57;;
8580;SDS011;4328;48.622;9.230;2023-07-09T02:56:38;4.23;;;3.37;;
8580;SDS011;4328;48.622;9.230;2023-07-09T02:59:04;3.93;;;3.60;;
8580;SDS011;4328;48.622;9.230;2023-07-09T03:01:31;5.00;;;3.57;;
8580;SDS011;4328;48.622;9.230;2023-07-09T03:03:59;5.70;;;3.63;;
8580;SDS011;4328;48.622;9.230;2023-07-09T03:06:28;3.90;;;3.50;;
8580;SDS011;4328;48.622;9.230;2023-07-09T03:08:57;4.17;;;3.53;;
8580;SDS011;4328;48.622;9.230;2023-07-09T03:11:23;3.90;;;3.53;;
8580;SDS011;4328;48.622;9.230;2023-07-09T03:13:50;3.60;;;3.30;;
8580;SDS011;4328;48.622;9.230;2023-07-09T03:16:16;4.30;;;3.40;;
8580;SDS011;4328;48.622;9.230;2023-07-09T03:18:44;4.43;;;3.57;;
8580;SDS011;4328;48.622;9.230;2023-07-09T03:21:10;4.50;;;4.07;;
8580;SDS011;4328;48.622;9.230;2023-07-09T03:23:38;4.00;;;3.70;;
8580;SDS011;4328;48.622;9.230;2023-07-09T03:26:04;4.00;;;3.60;;
8580;SDS011;4328;48.622;9.230;2023-07-09T03:28:31;3.80;;;3.50;;
8580;SDS011;4328;48.622;9.230;2023-07-09T03:30:58;3.97;;;3.60;;
8580;SDS011;4328;48.622;9.230;2023-07-09T03:33:24;4.10;;;3.70;;
8580;SDS011;4328;48.622;9.230;2023-07-09T03:35:51;4.23;;;3.80;;
8580;SDS011;4328;48.622;9.230;2023-07-09T03:38:18;4.50;;;4.10;;
8580;SDS011;4328;48.622;9.230;2023-07-09T03:40:49;3.80;;;3.50;;
8580;SDS011;4328;48.622;9.230;2023-07-09T03:43:15;4.00;;;3.67;;
8580;SDS011;4328;48.622;9.230;2023-07-09T03:45:43;4.10;;;3.77;;
8580;SDS011;4328;48.622;9.230;2023-07-09T03:48:10;3.93;;;3.53;;
8580;SDS011;4328;48.622;9.230;2023-07-09T03:50:36;4.20;;;3.87;;
8580;SDS011;4328;48.622;9.230;2023-07-09T03:53:03;4.17;;;3.60;;
8580;SDS011;4328;48.622;9.230;2023-07-09T03:55:30;5.00;;;3.70;;
8580;SDS011;4328;48.622;9.230;2023-07-09T03:57:58;4.03;;;3.73;;
8580;SDS011;4328;48.622;9.230;2023-07-09T04:00:24;3.97;;;3.67;;
8580;SDS011;4328;48.622;9.230;2023-07-09T04:02:51;3.97;;;3.57;;
8580;SDS011;4328;48.622;9.230;2023-07-09T04:05:18;4.03;;;3.60;;
8580;SDS011;4328;48.622;9.230;2023-07-09T04:07:44;4.20;;;3.80;;
8580;SDS011;4328;48.622;9.230;2023-07-09T04:10:11;6.80;;;4.00;;
8580;SDS011;4328;48.622;9.230;2023-07-09T04:12:37;4.63;;;3.90;;
8580;SDS011;4328;48.622;9.230;2023-07-09T04:15:06;4.50;;;4.10;;
8580;SDS011;4328;48.622;9.230;2023-07-09T04:17:32;5.93;;;4.20;;
8580;SDS011;4328;48.622;9.230;2023-07-09T04:19:59;4.30;;;3.73;;
8580;SDS011;4328;48.622;9.230;2023-07-09T04:22:25;4.13;;;3.73;;
8580;SDS011;4328;48.622;9.230;2023-07-09T04:24:52;3.90;;;3.60;;
8580;SDS011;4328;48.622;9.230;2023-07-09T04:27:18;4.23;;;3.50;;
8580;SDS011;4328;48.622;9.230;2023-07-09T04:29:44;4.57;;;3.90;;
8580;SDS011;4328;48.622;9.230;2023-07-09T04:32:13;4.70;;;4.23;;
8580;SDS011;4328;48.622;9.230;2023-07-09T04:34:40;4.30;;;3.90;;
8580;SDS011;4328;48.622;9.230;2023-07-09T04:37:06;4.40;;;4.00;;
8580;SDS011;4328;48.622;9.230;2023-07-09T04:39:34;4.30;;;3.90;;
8580;SDS011;4328;48.622;9.230;2023-07-09T04:42:00;4.40;;;4.03;;
8580;SDS011;4328;48.622;9.230;2023-07-09T04:44:26;5.00;;;3.63;;
8580;SDS011;4328;48.622;9.230;2023-07-09T04:46:53;4.13;;;3.83;;
8580;SDS011;4328;48.622;9.230;2023-07-09T04:49:21;4.87;;;4.37;;
8580;SDS011;4328;48.622;9.230;2023-07-09T04:51:48;4.10;;;3.80;;
8580;SDS011;4328;48.622;9.230;2023-07-09T04:54:14;4.37;;;4.00;;
8580;SDS011;4328;48.622;9.230;2023-07-09T04:56:41;5.93;;;4.13;;
8580;SDS011;4328;48.622;9.230;2023-07-09T04:59:09;4.70;;;4.30;;
8580;SDS011;4328;48.622;9.230;2023-07-09T05:01:35;4.83;;;3.80;;
8580;SDS011;4328;48.622;9.230;2023-07-09T05:04:02;4.60;;;4.07;;
8580;SDS011;4328;48.622;9.230;2023-07-09T05:06:29;4.40;;;4.00;;
8580;SDS011;4328;48.622;9.230;2023-07-09T05:08:56;3.97;;;3.67;;
8580;SDS011;4328;48.622;9.230;2023-07-09T05:11:22;4.83;;;4.17;;
8580;SDS011;4328;48.622;9.230;2023-07-09T05:13:48;4.10;;;3.70;;
8580;SDS011;4328;48.622;9.230;2023-07-09T05:16:15;4.53;;;4.13;;
8580;SDS011;4328;48.622;9.230;2023-07-09T05:18:42;5.67;;;4.00;;
8580;SDS011;4328;48.622;9.230;2023-07-09T05:21:08;4.43;;;4.03;;
8580;SDS011;4328;48.622;9.230;2023-07-09T05:23:36;4.20;;;3.80;;
8580;SDS011;4328;48.622;9.230;2023-07-09T05:26:02;5.63;;;4.17;;
8580;SDS011;4328;48.622;9.230;2023-07-09T05:28:29;4.50;;;4.10;;
8580;SDS011;4328;48.622;9.230;2023-07-09T05:30:57;4.83;;;4.33;;
8580;SDS011;4328;48.622;9.230;2023-07-09T05:33:24;4.77;;;4.23;;
8580;SDS011;4328;48.622;9.230;2023-07-09T05:35:51;4.67;;;4.27;;
8580;SDS011;4328;48.622;9.230;2023-07-09T05:38:17;5.33;;;3.97;;
8580;SDS011;4328;48.622;9.230;2023-07-09T05:40:45;5.00;;;4.00;;
8580;SDS011;4328;48.622;9.230;2023-07-09T05:43:12;5.50;;;4.03;;
8580;SDS011;4328;48.622;9.230;2023-07-09T05:45:39;4.53;;;4.13;;
8580;SDS011;4328;48.622;9.230;2023-07-09T05:48:05;6.47;;;4.03;;
8580;SDS011;4328;48.622;9.230;2023-07-09T05:50:32;4.77;;;4.23;;
8580;SDS011;4328;48.622;9.230;2023-07-09T05:52:59;5.07;;;4.00;;
8580;SDS011;4328;48.622;9.230;2023-07-09T05:55:25;4.60;;;4.20;;
8580;SDS011;4328;48.622;9.230;2023-07-09T05:57:53;6.17;;;4.07;;
8580;SDS011;4328;48.622;9.230;2023-07-09T06:00:20;4.17;;;3.80;;
8580;SDS011;4328;48.622;9.230;2023-07-09T06:02:46;4.70;;;4.17;;
8580;SDS011;4328;48.622;9.230;2023-07-09T06:05:13;4.20;;;3.83;;
8580;SDS011;4328;48.622;9.230;2023-07-09T06:07:39;4.10;;;3.80;;
8580;SDS011;4328;48.622;9.230;2023-07-09T06:10:06;4.27;;;3.87;;
8580;SDS011;4328;48.622;9.230;2023-07-09T06:12:33;4.97;;;4.47;;
8580;SDS011;4328;48.622;9.230;2023-07-09T06:15:01;4.63;;;4.23;;
8580;SDS011;4328;48.622;9.230;2023-07-09T06:17:28;4.33;;;3.93;;
8580;SDS011;4328;48.622;9.230;2023-07-09T06:19:54;4.73;;;4.17;;
8580;SDS011;4328;48.622;9.230;2023-07-09T06:22:21;5.00;;;4.50;;
8580;SDS011;4328;48.622;9.230;2023-07-09T06:24:47;5.10;;;4.03;;
8580;SDS011;4328;48.622;9.230;2023-07-09T06:27:14;5.57;;;4.40;;
8580;SDS011;4328;48.622;9.230;2023-07-09T06:29:40;4.87;;;4.47;;
8580;SDS011;4328;48.622;9.230;2023-07-09T06:32:08;4.07;;;3.77;;
8580;SDS011;4328;48.622;9.230;2023-07-09T06:34:34;4.73;;;4.20;;
8580;SDS011;4328;48.622;9.230;2023-07-09T06:37:01;6.13;;;4.60;;
8580;SDS011;4328;48.622;9.230;2023-07-09T06:39:27;5.00;;;4.47;;
8580;SDS011;4328;48.622;9.230;2023-07-09T06:41:54;4.93;;;4.50;;
8580;SDS011;4328;48.622;9.230;2023-07-09T06:44:20;5.50;;;4.20;;
8580;SDS011;4328;48.622;9.230;2023-07-09T06:46:46;5.70;;;4.33;;
8580;SDS011;4328;48.622;9.230;2023-07-09T06:49:14;5.93;;;4.43;;
8580;SDS011;4328;48.622;9.230;2023-07-09T06:51:41;6.40;;;4.40;;
8580;SDS011;4328;48.622;9.230;2023-07-09T06:54:07;4.90;;;4.03;;
8580;SDS011;4328;48.622;9.230;2023-07-09T06:56:34;4.87;;;4.47;;
8580;SDS011;4328;48.622;9.230;2023-07-09T06:59:01;5.60;;;4.27;;
8580;SDS011;4328;48.622;9.230;2023-07-09T07:01:27;4.70;;;4.23;;
8580;SDS011;4328;48.622;9.230;2023-07-09T07:03:53;4.63;;;3.90;;
8580;SDS011;4328;48.622;9.230;2023-07-09T07:06:21;4.53;;;4.13;;
8580;SDS011;4328;48.622;9.230;2023-07-09T07:08:48;4.57;;;3.97;;
8580;SDS011;4328;48.622;9.230;2023-07-09T07:11:14;5.47;;;4.00;;
8580;SDS011;4328;48.622;9.230;2023-07-09T07:13:41;6.80;;;4.10;;
8580;SDS011;4328;48.622;9.230;2023-07-09T07:16:08;5.20;;;4.10;;
8580;SDS011;4328;48.622;9.230;2023-07-09T07:18:34;5.27;;;3.90;;
8580;SDS011;4328;48.622;9.230;2023-07-09T07:21:01;5.03;;;3.67;;
8580;SDS011;4328;48.622;9.230;2023-07-09T07:23:29;4.83;;;4.03;;
8580;SDS011;4328;48.622;9.230;2023-07-09T07:25:55;5.73;;;4.53;;
8580;SDS011;4328;48.622;9.230;2023-07-09T07:28:22;4.70;;;4.00;;
8580;SDS011;4328;48.622;9.230;2023-07-09T07:30:57;4.90;;;4.33;;
8580;SDS011;4328;48.622;9.230;2023-07-09T07:33:23;7.10;;;4.35;;
8580;SDS011;4328;48.622;9.230;2023-07-09T07:35:49;5.18;;;4.35;;
8580;SDS011;4328;48.622;9.230;2023-07-09T07:38:16;6.10;;;4.20;;
8580;SDS011;4328;48.622;9.230;2023-07-09T07:40:45;17.17;;;6.90;;
8580;SDS011;4328;48.622;9.230;2023-07-09T07:43:11;7.90;;;4.88;;
8580;SDS011;4328;48.622;9.230;2023-07-09T07:45:39;5.50;;;4.10;;
8580;SDS011;4328;48.622;9.230;2023-07-09T07:48:06;4.32;;;3.80;;
8580;SDS011;4328;48.622;9.230;2023-07-09T07:50:32;4.63;;;3.97;;
8580;SDS011;4328;48.622;9.230;2023-07-09T07:52:59;5.30;;;4.20;;
8580;SDS011;4328;48.622;9.230;2023-07-09T07:55:25;9.95;;;4.30;;
8580;SDS011;4328;48.622;9.230;2023-07-09T07:57:54;6.40;;;4.63;;
8580;SDS011;4328;48.622;9.230;2023-07-09T08:00:22;5.88;;;4.65;;
8580;SDS011;4328;48.622;9.230;2023-07-09T08:02:48;5.85;;;3.70;;
8580;SDS011;4328;48.622;9.230;2023-07-09T08:05:15;5.38;;;4.10;;
8580;SDS011;4328;48.622;9.230;2023-07-09T08:07:41;7.38;;;3.70;;
8580;SDS011;4328;48.622;9.230;2023-07-09T08:10:08;4.47;;;3.90;;
8580;SDS011;4328;48.622;9.230;2023-07-09T08:12:34;5.97;;;4.38;;
8580;SDS011;4328;48.622;9.230;2023-07-09T08:15:02;5.97;;;4.90;;
8580;SDS011;4328;48.622;9.230;2023-07-09T08:17:28;5.47;;;4.97;;
8580;SDS011;4328;48.622;9.230;2023-07-09T08:19:55;4.65;;;4.28;;
8580;SDS011;4328;48.622;9.230;2023-07-09T08:22:21;6.75;;;4.70;;
8580;SDS011;4328;48.622;9.230;2023-07-09T08:24:48;5.82;;;5.10;;
8580;SDS011;4328;48.622;9.230;2023-07-09T08:27:14;4.45;;;3.95;;
8580;SDS011;4328;48.622;9.230;2023-07-09T08:29:40;5.72;;;4.60;;
8580;SDS011;4328;48.622;9.230;2023-07-09T08:32:09;5.32;;;4.65;;
8580;SDS011;4328;48.622;9.230;2023-07-09T08:34:37;5.07;;;4.47;;
8580;SDS011;4328;48.622;9.230;2023-07-09T08:37:03;3.70;;;3.40;;
8580;SDS011;4328;48.622;9.230;2023-07-09T08:39:30;5.57;;;3.60;;
8580;SDS011;4328;48.622;9.230;2023-07-09T08:41:58;4.05;;;3.65;;
8580;SDS011;4328;48.622;9.230;2023-07-09T08:44:29;3.90;;;3.50;;
8580;SDS011;4328;48.622;9.230;2023-07-09T08:47:00;3.67;;;3.10;;
8580;SDS011;4328;48.622;9.230;2023-07-09T08:49:33;4.18;;;3.05;;
8580;SDS011;4328;48.622;9.230;2023-07-09T08:52:01;3.72;;;3.20;;
8580;SDS011;4328;48.622;9.230;2023-07-09T08:54:28;5.47;;;3.47;;
8580;SDS011;4328;48.622;9.230;2023-07-09T08:56:56;4.45;;;3.50;;
8580;SDS011;4328;48.622;9.230;2023-07-09T08:59:23;3.95;;;3.17;;
8580;SDS011;4328;48.622;9.230;2023-07-09T09:01:51;3.55;;;3.25;;
8580;SDS011;4328;48.622;9.230;2023-07-09T09:04:19;3.92;;;3.38;;
8580;SDS011;4328;48.622;9.230;2023-07-09T09:06:48;3.72;;;2.88;;
8580;SDS011;4328;48.622;9.230;2023-07-09T09:09:20;5.05;;;3.35;;
8580;SDS011;4328;48.622;9.230;2023-07-09T09:11:49;3.78;;;2.88;;
8580;SDS011;4328;48.622;9.230;2023-07-09T09:14:22;5.57;;;3.30;;
8580;SDS011;4328;48.622;9.230;2023-07-09T09:16:50;3.10;;;2.72;;
8580;SDS011;4328;48.622;9.230;2023-07-09T09:19:18;2.70;;;2.50;;
8580;SDS011;4328;48.622;9.230;2023-07-09T09:21:48;3.58;;;2.80;;
8580;SDS011;4328;48.622;9.230;2023-07-09T09:24:17;2.85;;;2.50;;
8580;SDS011;4328;48.622;9.230;2023-07-09T09:26:45;3.78;;;2.78;;
8580;SDS011;4328;48.622;9.230;2023-07-09T09:29:15;3.30;;;2.58;;
8580;SDS011;4328;48.622;9.230;2023-07-09T09:31:42;2.85;;;2.53;;
8580;SDS011;4328;48.622;9.230;2023-07-09T09:34:16;3.95;;;2.83;;
8580;SDS011;4328;48.622;9.230;2023-07-09T09:36:43;2.88;;;2.50;;
8580;SDS011;4328;48.622;9.230;2023-07-09T09:39:11;3.00;;;2.70;;
8580;SDS011;4328;48.622;9.230;2023-07-09T09:41:37;3.42;;;2.30;;
8580;SDS011;4328;48.622;9.230;2023-07-09T09:44:04;3.47;;;2.78;;
8580;SDS011;4328;48.622;9.230;2023-07-09T09:46:31;2.67;;;2.47;;
8580;SDS011;4328;48.622;9.230;2023-07-09T09:48:59;2.92;;;2.53;;
8580;SDS011;4328;48.622;9.230;2023-07-09T09:51:26;3.63;;;2.80;;
8580;SDS011;4328;48.622;9.230;2023-07-09T09:53:55;3.50;;;3.17;;
8580;SDS011;4328;48.622;9.230;2023-07-09T09:56:26;3.05;;;2.63;;
8580;SDS011;4328;48.622;9.230;2023-07-09T09:58:53;3.42;;;2.78;;
8580;SDS011;4328;48.622;9.230;2023-07-09T10:01:22;2.38;;;2.28;;
8580;SDS011;4328;48.622;9.230;2023-07-09T10:03:51;4.18;;;2.90;;
8580;SDS011;4328;48.622;9.230;2023-07-09T10:06:21;2.60;;;2.40;;
8580;SDS011;4328;48.622;9.230;2023-07-09T10:08:53;3.40;;;2.50;;
8580;SDS011;4328;48.622;9.230;2023-07-09T10:11:24;2.72;;;2.53;;
8580;SDS011;4328;48.622;9.230;2023-07-09T10:13:54;2.97;;;2.58;;
8580;SDS011;4328;48.622;9.230;2023-07-09T10:16:23;3.10;;;2.80;;
8580;SDS011;4328;48.622;9.230;2023-07-09T10:18:56;3.70;;;2.72;;
8580;SDS011;4328;48.622;9.230;2023-07-09T10:21:27;3.20;;;2.88;;
8580;SDS011;4328;48.622;9.230;2023-07-09T10:24:02;3.47;;;3.17;;
8580;SDS011;4328;48.622;9.230;2023-07-09T10:26:36;3.10;;;2.42;;
8580;SDS011;4328;48.622;9.230;2023-07-09T10:29:14;2.92;;;2.72;;
8580;SDS011;4328;48.622;9.230;2023-07-09T10:31:46;2.92;;;2.72;;
8580;SDS011;4328;48.622;9.230;2023-07-09T10:34:18;3.53;;;3.08;;
8580;SDS011;4328;48.622;9.230;2023-07-09T10:39:31;3.65;;;2.67;;
8580;SDS011;4328;48.622;9.230;2023-07-09T10:41:59;3.10;;;2.80;;
8580;SDS011;4328;48.622;9.230;2023-07-09T10:44:28;4.18;;;2.95;;
8580;SDS011;4328;48.622;9.230;2023-07-09T10:46:57;3.58;;;2.85;;
8580;SDS011;4328;48.622;9.230;2023-07-09T10:49:27;3.17;;;2.90;;
8580;SDS011;4328;48.622;9.230;2023-07-09T10:52:00;3.38;;;3.05;;
8580;SDS011;4328;48.622;9.230;2023-07-09T10:54:32;3.00;;;2.67;;
8580;SDS011;4328;48.622;9.230;2023-07-09T10:57:01;4.55;;;2.85;;
8580;SDS011;4328;48.622;9.230;2023-07-09T10:59:30;2.88;;;2.58;;
8580;SDS011;4328;48.622;9.230;2023-07-09T11:01:58;3.13;;;2.85;;
8580;SDS011;4328;48.622;9.230;2023-07-09T11:04:29;3.55;;;2.90;;
8580;SDS011;4328;48.622;9.230;2023-07-09T11:06:58;3.00;;;2.80;;
8580;SDS011;4328;48.622;9.230;2023-07-09T11:09:26;4.00;;;2.90;;
8580;SDS011;4328;48.622;9.230;2023-07-09T11:11:55;5.03;;;3.42;;
8580;SDS011;4328;48.622;9.230;2023-07-09T11:14:25;4.60;;;3.40;;
8580;SDS011;4328;48.622;9.230;2023-07-09T11:16:55;3.25;;;2.95;;
8580;SDS011;4328;48.622;9.230;2023-07-09T11:19:23;3.92;;;3.05;;
8580;SDS011;4328;48.622;9.230;2023-07-09T11:21:59;3.53;;;3.20;;
8580;SDS011;4328;48.622;9.230;2023-07-09T11:24:31;3.85;;;3.05;;
8580;SDS011;4328;48.622;9.230;2023-07-09T11:26:57;4.97;;;3.28;;
8580;SDS011;4328;48.622;9.230;2023-07-09T11:29:25;3.47;;;3.17;;
8580;SDS011;4328;48.622;9.230;2023-07-09T11:31:52;3.55;;;3.25;;
8580;SDS011;4328;48.622;9.230;2023-07-09T11:34:19;5.45;;;3.38;;
8580;SDS011;4328;48.622;9.230;2023-07-09T11:36:49;3.28;;;2.83;;
8580;SDS011;4328;48.622;9.230;2023-07-09T11:39:19;3.63;;;3.20;;
8580;SDS011;4328;48.622;9.230;2023-07-09T11:41:46;4.18;;;3.50;;
8580;SDS011;4328;48.622;9.230;2023-07-09T11:44:14;4.13;;;3.28;;
8580;SDS011;4328;48.622;9.230;2023-07-09T11:46:59;3.40;;;3.10;;
8580;SDS011;4328;48.622;9.230;2023-07-09T11:49:31;4.40;;;3.05;;
8580;SDS011;4328;48.622;9.230;2023-07-09T11:51:59;4.50;;;2.92;;
8580;SDS011;4328;48.622;9.230;2023-07-09T11:54:27;3.42;;;3.13;;
8580;SDS011;4328;48.622;9.230;2023-07-09T11:56:54;3.20;;;3.00;;
8580;SDS011;4328;48.622;9.230;2023-07-09T11:59:21;5.38;;;3.10;;
8580;SDS011;4328;48.622;9.230;2023-07-09T12:01:47;3.55;;;3.22;;
8580;SDS011;4328;48.622;9.230;2023-07-09T12:04:16;3.38;;;3.08;;
8580;SDS011;4328;48.622;9.230;2023-07-09T12:06:45;3.40;;;2.63;;
8580;SDS011;4328;48.622;9.230;2023-07-09T12:09:12;4.47;;;2.95;;
8580;SDS011;4328;48.622;9.230;2023-07-09T12:11:42;5.63;;;3.15;;
8580;SDS011;4328;48.622;9.230;2023-07-09T12:14:10;4.20;;;2.95;;
8580;SDS011;4328;48.622;9.230;2023-07-09T12:16:38;5.35;;;3.17;;
8580;SDS011;4328;48.622;9.230;2023-07-09T12:19:05;3.33;;;3.00;;
8580;SDS011;4328;48.622;9.230;2023-07-09T12:21:34;3.47;;;2.90;;
8580;SDS011;4328;48.622;9.230;2023-07-09T12:24:12;4.60;;;3.10;;
8580;SDS011;4328;48.622;9.230;2023-07-09T12:26:42;2.95;;;2.75;;
8580;SDS011;4328;48.622;9.230;2023-07-09T12:29:09;3.08;;;2.72;;
8580;SDS011;4328;48.622;9.230;2023-07-09T12:31:35;4.13;;;2.70;;
8580;SDS011;4328;48.622;9.230;2023-07-09T12:34:02;4.60;;;3.05;;
8580;SDS011;4328;48.622;9.230;2023-07-09T12:36:28;3.60;;;3.00;;
8580;SDS011;4328;48.622;9.230;2023-07-09T12:38:56;3.67;;;3.20;;
8580;SDS011;4328;48.622;9.230;2023-07-09T12:41:25;3.42;;;3.13;;
8580;SDS011;4328;48.622;9.230;2023-07-09T12:43:53;3.65;;;3.05;;
8580;SDS011;4328;48.622;9.230;2023-07-09T12:46:20;3.40;;;3.00;;
8580;SDS011;4328;48.622;9.230;2023-07-09T12:48:47;2.80;;;2.63;;
8580;SDS011;4328;48.622;9.230;2023-07-09T12:51:16;5.20;;;3.05;;
8580;SDS011;4328;48.622;9.230;2023-07-09T12:53:44;5.15;;;3.58;;
8580;SDS011;4328;48.622;9.230;2023-07-09T12:56:11;5.78;;;3.00;;
8580;SDS011;4328;48.622;9.230;2023-07-09T12:58:39;4.32;;;3.05;;
8580;SDS011;4328;48.622;9.230;2023-07-09T13:01:07;3.97;;;3.00;;
8580;SDS011;4328;48.622;9.230;2023-07-09T13:03:34;4.15;;;2.92;;
8580;SDS011;4328;48.622;9.230;2023-07-09T13:06:01;4.68;;;3.40;;
8580;SDS011;4328;48.622;9.230;2023-07-09T13:08:30;3.25;;;2.80;;
8580;SDS011;4328;48.622;9.230;2023-07-09T13:10:57;3.00;;;2.75;;
8580;SDS011;4328;48.622;9.230;2023-07-09T13:13:23;4.15;;;3.00;;
8580;SDS011;4328;48.622;9.230;2023-07-09T13:15:52;3.65;;;3.30;;
8580;SDS011;4328;48.622;9.230;2023-07-09T13:18:22;5.38;;;3.10;;
8580;SDS011;4328;48.622;9.230;2023-07-09T13:20:49;3.72;;;2.88;;
8580;SDS011;4328;48.622;9.230;2023-07-09T13:23:17;5.18;;;2.95;;
8580;SDS011;4328;48.622;9.230;2023-07-09T13:25:44;6.07;;;3.33;;
8580;SDS011;4328;48.622;9.230;2023-07-09T13:28:20;2.97;;;2.70;;
8580;SDS011;4328;48.622;9.230;2023-07-09T13:30:47;4.47;;;3.15;;
8580;SDS011;4328;48.622;9.230;2023-07-09T13:33:15;3.05;;;2.80;;
8580;SDS011;4328;48.622;9.230;2023-07-09T13:35:43;4.65;;;2.88;;
8580;SDS011;4328;48.622;9.230;2023-07-09T13:38:13;6.60;;;3.38;;
8580;SDS011;4328;48.622;9.230;2023-07-09T13:40:40;4.78;;;2.80;;
8580;SDS011;4328;48.622;9.230;2023-07-09T13:43:08;3.53;;;2.70;;
8580;SDS011;4328;48.622;9.230;2023-07-09T13:45:34;5.05;;;2.80;;
8580;SDS011;4328;48.622;9.230;2023-07-09T13:48:01;5.75;;;2.70;;
8580;SDS011;4328;48.622;9.230;2023-07-09T13:50:29;3.22;;;2.60;;
8580;SDS011;4328;48.622;9.230;2023-07-09T13:52:55;4.38;;;3.08;;
8580;SDS011;4328;48.622;9.230;2023-07-09T13:55:22;2.63;;;2.42;;
8580;SDS011;4328;48.622;9.230;2023-07-09T13:57:50;3.05;;;2.70;;
8580;SDS011;4328;48.622;9.230;2023-07-09T14:00:18;5.22;;;3.33;;
8580;SDS011;4328;48.622;9.230;2023-07-09T14:02:45;5.38;;;2.40;;
8580;SDS011;4328;48.622;9.230;2023-07-09T14:05:12;3.40;;;2.85;;
8580;SDS011;4328;48.622;9.230;2023-07-09T14:07:41;2.60;;;2.40;;
8580;SDS011;4328;48.622;9.230;2023-07-09T14:10:10;4.60;;;2.90;;
8580;SDS011;4328;48.622;9.230;2023-07-09T14:12:37;3.92;;;3.10;;
8580;SDS011;4328;48.622;9.230;2023-07-09T14:15:05;3.03;;;2.60;;
8580;SDS011;4328;48.622;9.230;2023-07-09T14:17:36;4.78;;;2.85;;
8580;SDS011;4328;48.622;9.230;2023-07-09T14:20:04;4.07;;;2.83;;
8580;SDS011;4328;48.622;9.230;2023-07-09T14:22:31;4.40;;;2.75;;
8580;SDS011;4328;48.622;9.230;2023-07-09T14:25:00;4.22;;;3.00;;
8580;SDS011;4328;48.622;9.230;2023-07-09T14:27:26;4.65;;;2.90;;
8580;SDS011;4328;48.622;9.230;2023-07-09T14:29:53;4.25;;;2.95;;
8580;SDS011;4328;48.622;9.230;2023-07-09T14:32:30;4.20;;;2.97;;
8580;SDS011;4328;48.622;9.230;2023-07-09T14:34:57;4.85;;;3.08;;
8580;SDS011;4328;48.622;9.230;2023-07-09T14:37:23;2.83;;;2.55;;
8580;SDS011;4328;48.622;9.230;2023-07-09T14:39:50;3.35;;;2.58;;
8580;SDS011;4328;48.622;9.230;2023-07-09T14:42:17;4.03;;;2.97;;
8580;SDS011;4328;48.622;9.230;2023-07-09T14:44:44;4.93;;;2.97;;
8580;SDS011;4328;48.622;9.230;2023-07-09T14:47:11;2.85;;;2.60;;
8580;SDS011;4328;48.622;9.230;2023-07-09T14:49:40;3.72;;;2.75;;
8580;SDS011;4328;48.622;9.230;2023-07-09T14:52:09;3.00;;;2.80;;
8580;SDS011;4328;48.622;9.230;2023-07-09T14:54:36;3.75;;;2.90;;
8580;SDS011;4328;48.622;9.230;2023-07-09T14:57:03;3.72;;;2.50;;
8580;SDS011;4328;48.622;9.230;2023-07-09T14:59:35;3.00;;;2.60;;
8580;SDS011;4328;48.622;9.230;2023-07-09T15:02:01;3.50;;;2.33;;
8580;SDS011;4328;48.622;9.230;2023-07-09T15:04:28;3.45;;;2.45;;
8580;SDS011;4328;48.622;9.230;2023-07-09T15:06:55;5.25;;;2.90;;
8580;SDS011;4328;48.622;9.230;2023-07-09T15:09:22;3.67;;;2.53;;
8580;SDS011;4328;48.622;9.230;2023-07-09T15:11:50;3.33;;;2.70;;
8580;SDS011;4328;48.622;9.230;2023-07-09T15:14:17;3.20;;;2.70;;
8580;SDS011;4328;48.622;9.230;2023-07-09T15:16:45;3.28;;;2.72;;
8580;SDS011;4328;48.622;9.230;2023-07-09T15:19:12;3.45;;;2.75;;
8580;SDS011;4328;48.622;9.230;2023-07-09T15:21:38;4.40;;;2.90;;
8580;SDS011;4328;48.622;9.230;2023-07-09T15:24:06;5.63;;;2.70;;